Time;durP1;ratioP1;P1;durP2;ratioP2;P2;SDS_P1;SDS_P2;PMS_P1;PMS_P2;Temp;Humidity;BMP_temperature;BMP_pressure;BME280_temperature;BME280_humidity;BME280_pressure;Samples;Min_cycle;Max_cycle;Signal;HPM_P1;HPM_P2
2023/01/27 00:00:23;;;;;;;;;;;;;;;3.15;100.00;67121.72;4991116;28;19952;-84
2023/01/27 00:02:49;;;;;;;;;;;;;;;3.16;100.00;67128.09;4987851;28;19922;-84
2023/01/27 00:05:14;;;;;;;;;;;;;;;3.16;100.00;67120.22;4995711;28;20510;-84
2023/01/27 00:07:44;;;;;;;;;;;;;;;;;;5009080;28;19926;-85
2023/01/27 00:10:10;;;;;;;;;;;;;;;3.12;100.00;67126.22;5008387;28;20344;-84
2023/01/27 00:15:19;;;;;;;;;;;;;;;3.08;100.00;67119.06;5017971;28;20016;-84
2023/01/27 00:17:45;;;;;;;;;;;;;;;3.07;100.00;67113.25;5008267;28;20424;-84
2023/01/27 00:20:10;;;;;;;;;;;;;;;3.06;100.00;67111.56;4994735;28;20832;-85
2023/01/27 00:25:19;;;;;;;;;;;;;;;3.03;100.00;67113.47;4993844;28;19933;-85
2023/01/27 00:27:44;;;;;;;;;;;;;;;3.02;100.00;67107.63;4984817;28;20318;-84
2023/01/27 00:30:09;;;;;;;;;;;;;;;;;;4985770;28;19918;-84
2023/01/27 00:35:18;;;;;;;;;;;;;;;3.00;100.00;67110.06;4980272;28;19932;-84
2023/01/27 00:37:44;;;;;;;;;;;;;;;2.99;100.00;67108.94;5000966;28;19921;-84
2023/01/27 00:40:10;;;;;;;;;;;;;;;2.98;100.00;67102.56;4982269;28;20404;-85
2023/01/27 00:42:35;;;;;;;;;;;;;;;2.97;100.00;67107.25;5005359;28;19917;-85
2023/01/27 00:47:44;;;;;;;;;;;;;;;;;;5005446;28;20012;-85
2023/01/27 00:50:10;;;;;;;;;;;;;;;2.94;100.00;67109.13;5005918;28;20012;-84
2023/01/27 00:52:35;;;;;;;;;;;;;;;2.93;100.00;67103.31;5008757;28;19957;-84
2023/01/27 00:55:00;;;;;;;;;;;;;;;;;;5005948;28;19983;-84
2023/01/27 00:57:25;;;;;;;;;;;;;;;2.96;100.00;67100.84;4984368;28;20000;-85
2023/01/27 00:59:50;;;;;;;;;;;;;;;;;;5006633;28;19957;-84
2023/01/27 01:02:16;;;;;;;;;;;;;;;2.96;100.00;67100.28;5006904;28;19927;-86
2023/01/27 01:04:41;;;;;;;;;;;;;;;2.96;100.00;67105.56;5006757;28;19937;-86
2023/01/27 01:07:06;;;;;;;;;;;;;;;2.92;100.00;67102.16;5005910;28;19917;-85
2023/01/27 01:09:31;;;;;;;;;;;;;;;;;;5008351;28;19914;-86
2023/01/27 01:11:56;;;;;;;;;;;;;;;;;;5006212;28;19921;-86
2023/01/27 01:14:21;;;;;;;;;;;;;;;;;;5006882;28;19925;-86
2023/01/27 01:16:47;;;;;;;;;;;;;;;2.93;100.00;67102.72;4989441;28;20434;-86
2023/01/27 01:19:12;;;;;;;;;;;;;;;;;;5006234;28;19918;-86
2023/01/27 01:21:37;;;;;;;;;;;;;;;2.95;100.00;67099.72;5007647;28;20577;-86
2023/01/27 01:24:03;;;;;;;;;;;;;;;;;;5005944;28;20557;-86
2023/01/27 01:26:28;;;;;;;;;;;;;;;2.95;100.00;67099.72;5007526;28;19917;-86
2023/01/27 01:28:53;;;;;;;;;;;;;;;2.96;100.00;67105.56;5011428;28;19977;-86
2023/01/27 01:31:19;;;;;;;;;;;;;;;2.94;100.00;67104.44;5012354;28;19979;-87
2023/01/27 01:33:45;;;;;;;;;;;;;;;2.91;100.00;67103.69;5010701;28;19917;-86
2023/01/27 01:36:10;;;;;;;;;;;;;;;;;;5005351;28;20745;-86
2023/01/27 01:38:35;;;;;;;;;;;;;;;2.82;100.00;67085.06;4986526;28;20432;-86
2023/01/27 01:41:00;;;;;;;;;;;;;;;2.79;100.00;67090.16;5007545;28;19963;-86
2023/01/27 01:43:26;;;;;;;;;;;;;;;2.79;100.00;67086.94;5007487;28;19921;-85
2023/01/27 01:45:54;;;;;;;;;;;;;;;2.75;100.00;67077.75;4999998;28;19924;-86
2023/01/27 01:48:34;;;;;;;;;;;;;;;2.75;100.00;67082.44;5002238;28;19918;-86
2023/01/27 01:50:59;;;;;;;;;;;;;;;;;;5004879;28;19972;-86
2023/01/27 01:53:28;;;;;;;;;;;;;;;;;;5007328;28;19999;-86
2023/01/27 01:55:54;;;;;;;;;;;;;;;2.71;100.00;67078.50;4992641;28;19929;-86
2023/01/27 01:58:19;;;;;;;;;;;;;;;2.69;100.00;67076.25;4989689;28;19963;-86
2023/01/27 02:00:45;;;;;;;;;;;;;;;2.68;100.00;67070.44;5005653;28;19956;-86
2023/01/27 02:03:10;;;;;;;;;;;;;;;2.68;100.00;67075.69;5001734;28;20016;-86
2023/01/27 02:05:36;;;;;;;;;;;;;;;;;;5006427;28;19918;-86
2023/01/27 02:08:08;;;;;;;;;;;;;;;2.68;100.00;67075.13;5004452;28;19928;-86
2023/01/27 02:10:33;;;;;;;;;;;;;;;;;;5006852;28;19921;-86
2023/01/27 02:12:58;;;;;;;;;;;;;;;2.66;100.00;67067.63;5004314;28;19971;-85
2023/01/27 02:15:24;;;;;;;;;;;;;;;2.64;100.00;67073.78;5006412;28;20377;-86
2023/01/27 02:17:49;;;;;;;;;;;;;;;2.65;100.00;67071.75;5004253;28;19928;-86
2023/01/27 02:20:17;;;;;;;;;;;;;;;2.62;100.00;67063.13;5004852;28;20416;-86
2023/01/27 02:22:42;;;;;;;;;;;;;;;;;;5005478;28;19924;-85
2023/01/27 02:25:16;;;;;;;;;;;;;;;2.60;100.00;67066.66;5005238;28;19917;-85
2023/01/27 02:27:41;;;;;;;;;;;;;;;;;;5001033;28;19924;-86
2023/01/27 02:30:07;;;;;;;;;;;;;;;2.60;100.00;67066.09;4999994;28;19917;-85
2023/01/27 02:32:33;;;;;;;;;;;;;;;2.60;100.00;67060.84;5005316;28;19918;-86
2023/01/27 02:34:59;;;;;;;;;;;;;;;2.61;100.00;67067.22;5001891;28;19925;-86
2023/01/27 02:37:24;;;;;;;;;;;;;;;;;;5006314;28;20363;-87
2023/01/27 02:39:49;;;;;;;;;;;;;;;;;;5005504;28;19972;-85
2023/01/27 02:42:16;;;;;;;;;;;;;;;2.59;100.00;67064.97;5003695;28;19925;-86
2023/01/27 02:44:41;;;;;;;;;;;;;;;;;;5003223;28;19978;-85
2023/01/27 02:47:06;;;;;;;;;;;;;;;;;;5004644;28;19952;-85
2023/01/27 02:49:31;;;;;;;;;;;;;;;2.59;100.00;67065.56;5005330;28;19924;-85
2023/01/27 02:51:57;;;;;;;;;;;;;;;2.61;100.00;67067.22;4992127;28;19917;-85
2023/01/27 02:54:25;;;;;;;;;;;;;;;2.59;100.00;67064.97;5006332;28;19917;-86
2023/01/27 02:56:51;;;;;;;;;;;;;;;2.58;100.00;67063.84;4998595;28;20585;-86
2023/01/27 02:59:16;;;;;;;;;;;;;;;2.58;100.00;67066.47;4987312;28;20016;-85
2023/01/27 03:01:41;;;;;;;;;;;;;;;;;;5006141;28;19921;-85
2023/01/27 03:04:08;;;;;;;;;;;;;;;2.58;100.00;67064.41;5009558;28;19917;-85
2023/01/27 03:06:33;;;;;;;;;;;;;;;;;;5010533;28;19917;-85
2023/01/27 03:08:58;;;;;;;;;;;;;;;2.62;100.00;67068.38;5003119;28;20020;-86
2023/01/27 03:14:07;;;;;;;;;;;;;;;;;;5007012;28;19963;-85
2023/01/27 03:19:16;;;;;;;;;;;;;;;;;;4997991;28;20360;-85
2023/01/27 03:21:44;;;;;;;;;;;;;;;2.57;100.00;67062.72;5008591;28;20344;-86
2023/01/27 03:24:09;;;;;;;;;;;;;;;2.56;100.00;67064.22;5005939;28;19945;-86
2023/01/27 03:26:37;;;;;;;;;;;;;;;2.56;100.00;67056.34;4987248;28;19974;-86
2023/01/27 03:31:46;;;;;;;;;;;;;;;;;;5008972;28;19939;-86
2023/01/27 03:34:11;;;;;;;;;;;;;;;2.53;100.00;67058.22;5003746;28;20004;-86
2023/01/27 03:47:31;;;;;;;;;;;;;;;;;;5000179;28;20505;-86
2023/01/27 03:49:56;;;;;;;;;;;;;;;;;;4997619;28;20560;-86
2023/01/27 03:52:21;;;;;;;;;;;;;;;2.53;100.00;67058.22;5008644;28;20296;-85
2023/01/27 03:54:47;;;;;;;;;;;;;;;2.55;100.00;67060.47;5005871;28;20384;-86
2023/01/27 03:57:12;;;;;;;;;;;;;;;;;;5008173;28;19965;-85
2023/01/27 03:59:37;;;;;;;;;;;;;;;;;;5009556;28;19920;-86
2023/01/27 04:07:30;;;;;;;;;;;;;;;;;;5020548;28;19923;-86
2023/01/27 04:09:55;;;;;;;;;;;;;;;2.58;100.00;67064.41;4998477;28;19917;-86
2023/01/27 04:12:21;;;;;;;;;;;;;;;2.58;100.00;67059.16;5008695;28;19917;-85
2023/01/27 04:14:46;;;;;;;;;;;;;;;;;;5008536;28;19914;-86
2023/01/27 04:17:11;;;;;;;;;;;;;;;;;;5007933;28;20057;-85
2023/01/27 04:19:37;;;;;;;;;;;;;;;2.56;100.00;67056.91;4998656;28;20444;-85
2023/01/27 04:22:02;;;;;;;;;;;;;;;;;;5008078;28;19923;-86
2023/01/27 04:24:27;;;;;;;;;;;;;;;2.59;100.00;67064.97;4990226;28;19924;-85
2023/01/27 04:26:53;;;;;;;;;;;;;;;;;;4990872;28;19921;-86
2023/01/27 04:29:18;;;;;;;;;;;;;;;;;;5008472;28;19917;-86
2023/01/27 04:31:44;;;;;;;;;;;;;;;2.58;100.00;67063.84;4992985;28;19917;-85
2023/01/27 04:34:09;;;;;;;;;;;;;;;;;;5006990;28;19963;-86
2023/01/27 04:36:34;;;;;;;;;;;;;;;2.57;100.00;67052.22;5006953;28;20016;-85
2023/01/27 04:38:59;;;;;;;;;;;;;;;2.59;100.00;67065.56;5007717;28;19964;-85
2023/01/27 04:41:24;;;;;;;;;;;;;;;;;;5008754;28;19968;-85
2023/01/27 04:43:50;;;;;;;;;;;;;;;;;;5007706;28;19931;-86
2023/01/27 04:46:15;;;;;;;;;;;;;;;2.56;100.00;67056.34;5007888;28;19918;-86
2023/01/27 04:48:40;;;;;;;;;;;;;;;;;;4990108;28;19918;-85
2023/01/27 04:51:05;;;;;;;;;;;;;;;2.51;100.00;67055.97;5005681;28;19918;-86
2023/01/27 04:53:30;;;;;;;;;;;;;;;2.52;100.00;67051.84;5008130;28;20300;-86
2023/01/27 04:56:06;;;;;;;;;;;;;;;2.49;100.00;67057.47;5007284;28;20384;-86
2023/01/27 04:58:31;;;;;;;;;;;;;;;2.47;100.00;67047.34;5016174;28;19964;-86
2023/01/27 05:00:57;;;;;;;;;;;;;;;2.46;100.00;67051.44;5008810;28;19991;-85
2023/01/27 05:03:22;;;;;;;;;;;;;;;2.46;100.00;67050.88;5009431;28;19920;-86
2023/01/27 05:05:47;;;;;;;;;;;;;;;2.46;100.00;67051.44;5009301;28;19963;-85
2023/01/27 05:08:12;;;;;;;;;;;;;;;2.49;100.00;67054.28;5008578;28;20008;-86
2023/01/27 05:10:38;;;;;;;;;;;;;;;;;;4992248;28;19967;-86
2023/01/27 05:13:03;;;;;;;;;;;;;;;;;;5008291;28;20043;-86
2023/01/27 05:15:29;;;;;;;;;;;;;;;2.49;100.00;67049.56;4991351;28;19932;-85
2023/01/27 05:17:54;;;;;;;;;;;;;;;;;;5005048;28;19913;-86
2023/01/27 05:20:19;;;;;;;;;;;;;;;2.50;100.00;67055.38;5006903;28;19927;-86
2023/01/27 05:22:45;;;;;;;;;;;;;;;2.49;100.00;67054.81;5009264;28;19984;-85
2023/01/27 05:25:10;;;;;;;;;;;;;;;2.46;100.00;67046.19;5005921;28;19921;-85
2023/01/27 05:27:35;;;;;;;;;;;;;;;2.40;100.00;67044.69;5007002;28;19914;-85
2023/01/27 05:30:00;;;;;;;;;;;;;;;2.35;100.00;67031.19;5003878;28;19921;-85
2023/01/27 05:32:26;;;;;;;;;;;;;;;;;;4990247;28;19917;-86
2023/01/27 05:34:51;;;;;;;;;;;;;;;2.25;100.00;67028.34;5006085;28;20414;-85
2023/01/27 05:37:16;;;;;;;;;;;;;;;;;;5005187;28;20413;-85
2023/01/27 05:39:41;;;;;;;;;;;;;;;2.20;100.00;67022.72;5000557;28;19918;-85
2023/01/27 05:42:06;;;;;;;;;;;;;;;;;;5005352;28;19917;-85
2023/01/27 05:44:31;;;;;;;;;;;;;;;;;;5007296;28;20446;-86
2023/01/27 05:46:57;;;;;;;;;;;;;;;2.18;100.00;67020.47;5002657;28;20087;-85
2023/01/27 05:49:22;;;;;;;;;;;;;;;;;;5007234;28;19952;-85
2023/01/27 05:51:47;;;;;;;;;;;;;;;2.15;100.00;67016.53;5006241;28;19917;-85
2023/01/27 05:54:12;;;;;;;;;;;;;;;2.15;100.00;67017.09;5006887;28;19921;-85
2023/01/27 05:56:39;;;;;;;;;;;;;;;2.18;100.00;67020.47;4997997;28;19926;-85
2023/01/27 05:59:05;;;;;;;;;;;;;;;2.20;100.00;67022.16;4997693;28;20626;-84
2023/01/27 06:01:30;;;;;;;;;;;;;;;;;;5005359;28;20008;-85
2023/01/27 06:03:55;;;;;;;;;;;;;;;;;;4997074;28;19983;-85
2023/01/27 06:06:20;;;;;;;;;;;;;;;;;;5003343;28;19917;-85
2023/01/27 06:08:46;;;;;;;;;;;;;;;2.21;100.00;67023.28;5006884;28;19913;-85
2023/01/27 06:11:11;;;;;;;;;;;;;;;2.19;100.00;67021.03;5006208;28;19924;-85
2023/01/27 06:13:39;;;;;;;;;;;;;;;;;;5009532;28;19967;-85
2023/01/27 06:16:04;;;;;;;;;;;;;;;;;;5008220;28;19957;-85
2023/01/27 06:18:29;;;;;;;;;;;;;;;;;;5007530;28;19955;-85
2023/01/27 06:20:55;;;;;;;;;;;;;;;;;;4987372;28;19918;-85
2023/01/27 06:23:20;;;;;;;;;;;;;;;2.19;100.00;67021.59;5000556;28;20387;-85
2023/01/27 06:25:47;;;;;;;;;;;;;;;2.21;100.00;67023.28;5001295;28;19913;-85
2023/01/27 06:28:12;;;;;;;;;;;;;;;;;;4996429;28;19914;-85
2023/01/27 06:30:37;;;;;;;;;;;;;;;;;;5001471;28;19920;-85
2023/01/27 06:33:02;;;;;;;;;;;;;;;2.19;100.00;67021.59;5007701;28;19999;-85
2023/01/27 06:35:28;;;;;;;;;;;;;;;2.19;100.00;67021.03;5006108;28;19924;-85
2023/01/27 06:37:53;;;;;;;;;;;;;;;2.21;100.00;67023.84;5001699;28;19926;-85
2023/01/27 06:40:19;;;;;;;;;;;;;;;;;;5003001;28;20357;-85
2023/01/27 06:42:44;;;;;;;;;;;;;;;2.23;100.00;67026.09;5001688;28;19921;-85
2023/01/27 06:45:10;;;;;;;;;;;;;;;2.24;100.00;67021.41;5003214;28;19917;-86
2023/01/27 06:47:35;;;;;;;;;;;;;;;;;;5000401;28;19914;-86
2023/01/27 06:50:00;;;;;;;;;;;;;;;2.25;100.00;67023.09;4979330;28;19924;-85
2023/01/27 06:52:25;;;;;;;;;;;;;;;;;;4997797;28;19917;-86
2023/01/27 06:54:51;;;;;;;;;;;;;;;2.26;100.00;67024.22;5006040;28;19917;-86
2023/01/27 06:57:16;;;;;;;;;;;;;;;;;;5006041;28;20000;-85
2023/01/27 06:59:41;;;;;;;;;;;;;;;;;;5004903;28;19954;-85
2023/01/27 07:02:06;;;;;;;;;;;;;;;;;;5005985;28;19921;-86
2023/01/27 07:04:31;;;;;;;;;;;;;;;2.30;100.00;67028.16;4988556;28;20365;-86
2023/01/27 07:06:57;;;;;;;;;;;;;;;;;;4994521;28;19917;-85
2023/01/27 07:09:22;;;;;;;;;;;;;;;2.31;100.00;67037.19;4988790;28;19913;-86
2023/01/27 07:11:47;;;;;;;;;;;;;;;;;;5001178;28;19917;-86
2023/01/27 07:14:12;;;;;;;;;;;;;;;;;;5002382;28;19923;-86
2023/01/27 07:16:38;;;;;;;;;;;;;;;2.37;100.00;67030.81;4989158;28;20416;-86
2023/01/27 07:19:03;;;;;;;;;;;;;;;;;;5005715;28;19920;-86
2023/01/27 07:21:28;;;;;;;;;;;;;;;;;;5003784;28;20012;-86
2023/01/27 07:23:53;;;;;;;;;;;;;;;2.40;100.00;67039.44;5004874;28;19928;-85
2023/01/27 07:26:19;;;;;;;;;;;;;;;2.41;100.00;67040.00;4982507;28;19925;-86
2023/01/27 07:28:44;;;;;;;;;;;;;;;2.41;100.00;67045.25;5004414;28;19917;-86
2023/01/27 07:31:09;;;;;;;;;;;;;;;;;;4987162;28;20397;-86
2023/01/27 07:33:36;;;;;;;;;;;;;;;2.43;100.00;67042.81;5006692;28;19917;-85
2023/01/27 07:36:01;;;;;;;;;;;;;;;;;;5004182;28;20458;-86
2023/01/27 07:38:26;;;;;;;;;;;;;;;2.45;100.00;67044.53;4990178;28;19963;-85
2023/01/27 07:40:51;;;;;;;;;;;;;;;2.46;100.00;67051.44;5003948;28;19923;-85
2023/01/27 07:43:16;;;;;;;;;;;;;;;;;;4987304;28;19913;-85
2023/01/27 07:45:42;;;;;;;;;;;;;;;2.46;100.00;67051.44;5004074;28;19979;-85
2023/01/27 07:48:07;;;;;;;;;;;;;;;2.47;100.00;67052.00;4998083;28;19921;-86
2023/01/27 07:50:33;;;;;;;;;;;;;;;2.47;100.00;67052.00;5005807;28;19917;-85
2023/01/27 07:52:59;;;;;;;;;;;;;;;;;;5008920;28;19932;-85
2023/01/27 07:55:24;;;;;;;;;;;;;;;;;;5005244;28;19928;-85
2023/01/27 07:57:51;;;;;;;;;;;;;;;2.48;100.00;67047.91;5008827;28;19918;-86
2023/01/27 08:00:17;;;;;;;;;;;;;;;;;;5006402;28;19940;-86
2023/01/27 08:02:42;;;;;;;;;;;;;;;2.48;100.00;67056.34;5004556;28;20519;-86
2023/01/27 08:05:07;;;;;;;;;;;;;;;2.51;100.00;67050.72;5007978;28;19928;-86
2023/01/27 08:07:32;;;;;;;;;;;;;;;2.50;100.00;67055.38;5008478;28;19918;-88
2023/01/27 08:09:58;;;;;;;;;;;;;;;2.50;100.00;67055.38;5011065;28;19961;-86
2023/01/27 08:12:23;;;;;;;;;;;;;;;2.51;100.00;67050.72;5009271;28;19917;-85
2023/01/27 08:14:48;;;;;;;;;;;;;;;2.51;100.00;67051.28;5007960;28;20269;-86
2023/01/27 08:17:13;;;;;;;;;;;;;;;2.51;100.00;67056.53;5008023;28;19921;-85
2023/01/27 08:19:39;;;;;;;;;;;;;;;;;;5010634;28;19913;-86
2023/01/27 08:22:04;;;;;;;;;;;;;;;2.52;100.00;67051.84;5009642;28;19952;-86
2023/01/27 08:24:29;;;;;;;;;;;;;;;2.54;100.00;67054.66;5005490;28;19917;-85
2023/01/27 08:26:54;;;;;;;;;;;;;;;;;;4990394;28;19917;-85
2023/01/27 08:29:19;;;;;;;;;;;;;;;2.57;100.00;67062.72;4987179;28;20381;-85
2023/01/27 08:31:45;;;;;;;;;;;;;;;;;;5004937;28;19921;-84
2023/01/27 08:34:10;;;;;;;;;;;;;;;2.58;100.00;67059.16;5007702;28;19929;-85
2023/01/27 08:36:35;;;;;;;;;;;;;;;;;;5006997;28;20372;-86
2023/01/27 08:39:01;;;;;;;;;;;;;;;;;;5008091;28;19921;-86
2023/01/27 08:41:26;;;;;;;;;;;;;;;2.61;100.00;67062.53;5009145;28;19917;-85
2023/01/27 08:43:53;;;;;;;;;;;;;;;2.62;100.00;67068.94;4988934;28;19925;-85
2023/01/27 08:46:18;;;;;;;;;;;;;;;2.63;100.00;67069.50;4986778;28;19925;-84
2023/01/27 08:48:43;;;;;;;;;;;;;;;2.66;100.00;67067.63;5007758;28;19913;-85
2023/01/27 08:51:11;;;;;;;;;;;;;;;2.65;100.00;67071.75;5006123;28;20389;-85
2023/01/27 08:53:36;;;;;;;;;;;;;;;;;;5007876;28;19917;-85
2023/01/27 08:56:01;;;;;;;;;;;;;;;;;;5005716;28;19925;-86
2023/01/27 08:58:26;;;;;;;;;;;;;;;2.68;100.00;67070.44;5008852;28;19917;-85
2023/01/27 09:00:51;;;;;;;;;;;;;;;2.70;100.00;67072.13;5007339;28;19997;-85
2023/01/27 09:03:16;;;;;;;;;;;;;;;2.72;100.00;67079.63;5008614;28;19924;-85
2023/01/27 09:05:42;;;;;;;;;;;;;;;2.72;100.00;67079.63;5006626;28;19917;-85
2023/01/27 09:08:07;;;;;;;;;;;;;;;;;;5008828;28;20030;-84
2023/01/27 09:10:32;;;;;;;;;;;;;;;;;;5010036;28;20571;-84
2023/01/27 09:12:58;;;;;;;;;;;;;;;2.76;100.00;67078.88;5004971;28;19922;-85
2023/01/27 09:15:23;;;;;;;;;;;;;;;;;;5007000;28;19921;-85
2023/01/27 09:17:48;;;;;;;;;;;;;;;;;;5010209;28;20072;-85
2023/01/27 09:20:13;;;;;;;;;;;;;;;2.83;100.00;67086.78;5004524;28;20444;-85
2023/01/27 09:22:39;;;;;;;;;;;;;;;;;;4988829;28;19953;-85
2023/01/27 09:25:04;;;;;;;;;;;;;;;2.89;100.00;67098.22;5007810;28;20324;-85
2023/01/27 09:27:30;;;;;;;;;;;;;;;;;;5010342;28;19921;-85
2023/01/27 09:29:55;;;;;;;;;;;;;;;2.92;100.00;67102.16;5007913;28;19921;-85
2023/01/27 09:32:20;;;;;;;;;;;;;;;;;;5005836;28;19926;-85
2023/01/27 09:34:45;;;;;;;;;;;;;;;;;;4992203;28;19918;-84
2023/01/27 09:37:11;;;;;;;;;;;;;;;3.04;100.00;67117.19;5002755;28;20008;-85
2023/01/27 09:39:36;;;;;;;;;;;;;;;;;;4988539;28;19922;-85
2023/01/27 09:42:02;;;;;;;;;;;;;;;3.12;100.00;67123.59;5004647;28;19921;-85
2023/01/27 09:44:36;;;;;;;;;;;;;;;3.11;100.00;67114.59;4992524;28;20344;-85
2023/01/27 09:47:09;;;;;;;;;;;;;;;3.12;100.00;67118.91;5001377;28;20284;-85
2023/01/27 09:49:51;;;;;;;;;;;;;;;3.14;100.00;67121.16;4947066;28;19987;-85
2023/01/27 09:52:39;;;;;;;;;;;;;;;3.13;100.00;67120.03;5001654;28;19921;-85
2023/01/27 09:55:23;;;;;;;;;;;;;;;3.17;100.00;67129.25;4987994;28;19917;-85
2023/01/27 09:58:04;;;;;;;;;;;;;;;3.17;100.00;67124.53;5002007;28;20232;-85
2023/01/27 10:00:41;;;;;;;;;;;;;;;3.20;100.00;67132.63;5004239;28;19920;-84
2023/01/27 10:03:12;;;;;;;;;;;;;;;3.23;100.00;67136.00;4994080;28;19948;-85
2023/01/27 10:05:56;;;;;;;;;;;;;;;3.24;100.00;67137.13;5006260;28;20451;-85
2023/01/27 10:08:21;;;;;;;;;;;;;;;;;;5003183;28;19924;-85
2023/01/27 10:11:00;;;;;;;;;;;;;;;3.30;100.00;67138.06;5008622;28;19913;-85
2023/01/27 10:13:32;;;;;;;;;;;;;;;3.31;100.00;67147.66;4998489;28;19924;-84
2023/01/27 10:16:03;;;;;;;;;;;;;;;3.33;100.00;67141.44;4979186;28;19918;-85
2023/01/27 10:18:31;;;;;;;;;;;;;;;3.34;100.00;67140.53;4979250;28;19913;-84
2023/01/27 10:21:23;;;;;;;;;;;;;;;3.31;100.00;67139.78;4990311;28;19920;-85
2023/01/27 10:23:48;;;;;;;;;;;;;;;3.35;100.00;67148.97;4956506;28;20270;-85
2023/01/27 10:26:14;;;;;;;;;;;;;;;3.34;100.00;67143.16;4991828;28;19920;-85
2023/01/27 10:28:46;;;;;;;;;;;;;;;3.35;100.00;67151.59;5009482;28;19917;-85
2023/01/27 10:31:17;;;;;;;;;;;;;;;3.33;100.00;67141.44;5008721;28;19957;-85
2023/01/27 10:33:42;;;;;;;;;;;;;;;;;;5008336;28;19913;-85
2023/01/27 10:36:27;;;;;;;;;;;;;;;3.36;100.00;67145.38;4995774;28;19918;-85
2023/01/27 10:38:55;;;;;;;;;;;;;;;3.41;100.00;67147.28;4997536;28;19920;-85
2023/01/27 10:41:35;;;;;;;;;;;;;;;3.39;100.00;67153.47;5007279;28;20695;-85
2023/01/27 10:44:01;;;;;;;;;;;;;;;;;;5007380;28;19917;-85
2023/01/27 10:46:26;;;;;;;;;;;;;;;;;;4997200;28;19919;-85
2023/01/27 10:48:51;;;;;;;;;;;;;;;;;;5003819;28;20049;-85
2023/01/27 10:51:16;;;;;;;;;;;;;;;;;;5007451;28;19917;-84
2023/01/27 10:53:41;;;;;;;;;;;;;;;;;;5009438;28;19914;-84
2023/01/27 10:56:30;;;;;;;;;;;;;;;3.53;100.00;67171.34;5007960;28;20577;-85
2023/01/27 10:58:55;;;;;;;;;;;;;;;;;;5009663;28;19996;-85
2023/01/27 11:01:20;;;;;;;;;;;;;;;;;;5008606;28;19961;-85
2023/01/27 11:03:57;;;;;;;;;;;;;;;3.51;100.00;67161.19;4993193;28;19917;-85
2023/01/27 11:06:23;;;;;;;;;;;;;;;;;;4987083;28;19914;-85
2023/01/27 11:08:48;;;;;;;;;;;;;;;;;;5002554;28;19917;-85
2023/01/27 11:14:03;;;;;;;;;;;;;;;3.57;100.00;67173.22;4996733;28;19982;-85
2023/01/27 11:16:28;;;;;;;;;;;;;;;;;;4999465;28;19996;-85
2023/01/27 11:18:53;;;;;;;;;;;;;;;;;;5003054;28;20008;-84
2023/01/27 11:21:20;;;;;;;;;;;;;;;3.62;100.00;67178.84;5000592;28;19914;-84
2023/01/27 11:23:47;;;;;;;;;;;;;;;3.63;100.00;67180.00;5007021;28;19945;-85
2023/01/27 11:26:32;;;;;;;;;;;;;;;3.66;100.00;67178.13;4995575;28;19914;-85
2023/01/27 11:29:15;;;;;;;;;;;;;;;3.72;100.00;67184.88;5012670;28;19949;-84
2023/01/27 11:31:43;;;;;;;;;;;;;;;3.87;100.00;67200.66;4984784;28;19920;-85
2023/01/27 11:34:18;;;;;;;;;;;;;;;3.87;100.00;67206.50;4995504;28;19917;-85
2023/01/27 11:36:43;;;;;;;;;;;;;;;3.88;100.00;67201.78;5011388;28;19944;-85
2023/01/27 11:39:09;;;;;;;;;;;;;;;3.92;100.00;67212.16;4978205;28;20282;-85
2023/01/27 11:41:45;;;;;;;;;;;;;;;3.94;100.00;67208.56;4975808;28;19921;-85
2023/01/27 11:44:19;;;;;;;;;;;;;;;3.95;100.00;67215.53;5007368;28;19965;-84
2023/01/27 11:46:45;;;;;;;;;;;;;;;3.93;100.00;67212.72;4987848;28;19921;-85
2023/01/27 11:49:10;;;;;;;;;;;;;;;;;;5006086;28;19980;-85
2023/01/27 11:51:39;;;;;;;;;;;;;;;3.88;100.00;67199.72;5007685;28;19924;-85
2023/01/27 11:54:16;;;;;;;;;;;;;;;3.85;100.00;67206.88;5004495;28;19918;-85
2023/01/27 11:56:41;;;;;;;;;;;;;;;;;;5007168;28;20380;-85
2023/01/27 11:59:07;;;;;;;;;;;;;;;;;;5008872;28;20444;-85
2023/01/27 12:01:32;;;;;;;;;;;;;;;;;;5010903;28;20413;-85
2023/01/27 12:03:57;;;;;;;;;;;;;;;;;;5007161;28;21182;-84
2023/01/27 12:06:42;;;;;;;;;;;;;;;3.76;100.00;67194.09;5005119;28;20381;-84
2023/01/27 12:09:07;;;;;;;;;;;;;;;;;;4985920;28;19917;-85
2023/01/27 12:11:33;;;;;;;;;;;;;;;3.71;100.00;67183.75;5006214;28;20017;-85
2023/01/27 12:14:00;;;;;;;;;;;;;;;3.77;100.00;67187.31;5006561;28;19924;-85
2023/01/27 12:16:46;;;;;;;;;;;;;;;3.76;100.00;67194.66;5003002;28;19930;-85
2023/01/27 12:19:17;;;;;;;;;;;;;;;3.75;100.00;67188.25;5010748;28;19925;-85
2023/01/27 12:21:48;;;;;;;;;;;;;;;3.74;100.00;67191.81;5005609;28;19964;-85
2023/01/27 12:24:22;;;;;;;;;;;;;;;3.75;100.00;67188.25;5007679;28;20539;-85
2023/01/27 12:26:50;;;;;;;;;;;;;;;3.80;100.00;67198.63;5005688;28;19964;-85
2023/01/27 12:29:19;;;;;;;;;;;;;;;3.75;100.00;67187.69;5005824;28;19917;-85
2023/01/27 12:31:44;;;;;;;;;;;;;;;;;;5011069;28;19913;-85
2023/01/27 12:34:09;;;;;;;;;;;;;;;;;;5007631;28;19971;-85
2023/01/27 12:36:34;;;;;;;;;;;;;;;;;;5008470;28;19918;-85
2023/01/27 12:39:00;;;;;;;;;;;;;;;3.72;100.00;67184.88;4996896;28;19921;-85
2023/01/27 12:41:25;;;;;;;;;;;;;;;;;;4996831;28;20385;-84
2023/01/27 12:43:50;;;;;;;;;;;;;;;;;;5009577;28;19921;-85
2023/01/27 12:46:16;;;;;;;;;;;;;;;;;;5004458;28;19944;-85
2023/01/27 12:48:46;;;;;;;;;;;;;;;3.72;100.00;67184.88;5006639;28;20369;-85
2023/01/27 12:51:18;;;;;;;;;;;;;;;3.73;100.00;67185.44;5009214;28;19913;-85
2023/01/27 12:53:43;;;;;;;;;;;;;;;;;;5011028;28;19914;-85
2023/01/27 12:56:09;;;;;;;;;;;;;;;;;;5006641;28;19917;-85
2023/01/27 12:58:39;;;;;;;;;;;;;;;3.69;100.00;67186.75;5009160;28;19932;-85
2023/01/27 13:01:29;;;;;;;;;;;;;;;3.70;100.00;67182.63;5002323;28;19924;-85
2023/01/27 13:03:54;;;;;;;;;;;;;;;;;;4980460;28;19925;-85
2023/01/27 13:06:29;;;;;;;;;;;;;;;3.59;100.00;67170.22;5002508;28;19929;-85
2023/01/27 13:08:54;;;;;;;;;;;;;;;;;;5009506;28;19917;-85
2023/01/27 13:11:29;;;;;;;;;;;;;;;3.54;100.00;67169.81;5001304;28;19947;-85
2023/01/27 13:13:55;;;;;;;;;;;;;;;;;;4999985;28;19914;-85
2023/01/27 13:16:29;;;;;;;;;;;;;;;3.56;100.00;67164.19;5001515;28;20282;-85
2023/01/27 13:18:54;;;;;;;;;;;;;;;;;;5009608;28;19922;-85
2023/01/27 13:21:20;;;;;;;;;;;;;;;;;;5003223;28;19971;-85
2023/01/27 13:23:46;;;;;;;;;;;;;;;3.52;100.00;67168.16;5004812;28;20370;-86
2023/01/27 13:26:15;;;;;;;;;;;;;;;3.52;100.00;67162.88;5001349;28;20392;-86
2023/01/27 13:28:48;;;;;;;;;;;;;;;3.49;100.00;67164.19;5007159;28;20364;-85
2023/01/27 13:31:18;;;;;;;;;;;;;;;3.47;100.00;67156.69;5007050;28;20008;-85
2023/01/27 13:33:44;;;;;;;;;;;;;;;3.45;100.00;67152.34;5000338;28;20371;-85
2023/01/27 13:36:15;;;;;;;;;;;;;;;3.50;100.00;67165.31;5008163;28;20020;-85
2023/01/27 13:38:53;;;;;;;;;;;;;;;3.50;100.00;67157.44;5010375;28;19920;-85
2023/01/27 13:41:48;;;;;;;;;;;;;;;3.49;100.00;67166.84;5009597;28;19921;-86
2023/01/27 13:44:13;;;;;;;;;;;;;;;;;;4938505;28;19922;-85
2023/01/27 13:46:39;;;;;;;;;;;;;;;3.48;100.00;67163.06;4991785;28;19960;-85
2023/01/27 13:49:04;;;;;;;;;;;;;;;;;;4989557;28;19918;-84
2023/01/27 13:51:32;;;;;;;;;;;;;;;3.49;100.00;67164.19;4996534;28;19917;-83
2023/01/27 13:53:57;;;;;;;;;;;;;;;;;;5008784;28;20593;-84
2023/01/27 13:56:22;;;;;;;;;;;;;;;;;;4991358;28;20142;-83
2023/01/27 13:58:47;;;;;;;;;;;;;;;;;;5010010;28;20285;-84
2023/01/27 14:01:21;;;;;;;;;;;;;;;3.47;100.00;67161.94;5008318;28;20340;-84
2023/01/27 14:03:46;;;;;;;;;;;;;;;;;;5006468;28;20012;-84
2023/01/27 14:06:25;;;;;;;;;;;;;;;3.47;100.00;67157.25;5007958;28;19965;-83
2023/01/27 14:09:07;;;;;;;;;;;;;;;3.47;100.00;67156.69;5008854;28;19921;-84
2023/01/27 14:11:41;;;;;;;;;;;;;;;3.46;100.00;67160.81;5006433;28;20399;-83
2023/01/27 14:14:13;;;;;;;;;;;;;;;3.45;100.00;67160.25;5007187;28;19917;-83
2023/01/27 14:16:38;;;;;;;;;;;;;;;;;;4995346;28;19924;-83
2023/01/27 14:19:18;;;;;;;;;;;;;;;3.45;100.00;67159.69;5002775;28;20008;-83
2023/01/27 14:22:02;;;;;;;;;;;;;;;3.43;100.00;67157.44;4991632;28;20060;-83
2023/01/27 14:24:54;;;;;;;;;;;;;;;3.43;100.00;67152.19;4989836;28;20073;-84
2023/01/27 14:27:19;;;;;;;;;;;;;;;;;;5002035;28;19921;-83
2023/01/27 14:29:44;;;;;;;;;;;;;;;;;;5009335;28;19920;-84
2023/01/27 14:32:25;;;;;;;;;;;;;;;3.42;100.00;67156.28;5008300;28;20018;-83
2023/01/27 14:35:16;;;;;;;;;;;;;;;3.41;100.00;67149.91;5009914;28;19921;-83
2023/01/27 14:37:42;;;;;;;;;;;;;;;;;;4984717;28;20041;-83
2023/01/27 14:40:16;;;;;;;;;;;;;;;3.40;100.00;67154.63;5009448;28;20075;-84
2023/01/27 14:42:41;;;;;;;;;;;;;;;;;;4992947;28;20012;-84